Time;durP1;ratioP1;P1;durP2;ratioP2;P2;SDS_P1;SDS_P2;PMS_P1;PMS_P2;Temp;Humidity;BMP_temperature;BMP_pressure;BME280_temperature;BME280_humidity;BME280_pressure;Samples;Min_cycle;Max_cycle;Signal;HPM_P1;HPM_P2
2021/12/22 00:01:40;;;;;;;6.25;3.33;;;-0.20;99.90;;;;;;5007409;28;20145;-57
2021/12/22 00:04:07;;;;;;;5.20;3.60;;;-0.20;99.90;;;;;;5009339;28;20081;-56
2021/12/22 00:06:36;;;;;;;6.15;3.53;;;-0.10;99.90;;;;;;5004970;28;20056;-55
2021/12/22 00:09:05;;;;;;;6.18;4.07;;;-0.10;99.90;;;;;;5005555;28;20064;-57
2021/12/22 00:11:32;;;;;;;7.75;4.85;;;-0.10;99.90;;;;;;5007819;28;20046;-54
2021/12/22 00:13:58;;;;;;;9.60;3.95;;;-0.10;99.90;;;;;;5004494;28;20121;-56
2021/12/22 00:16:25;;;;;;;7.32;4.25;;;-0.20;99.90;;;;;;5004974;28;20133;-57
2021/12/22 00:18:52;;;;;;;6.68;4.43;;;-0.20;99.90;;;;;;5015430;28;20142;-56
2021/12/22 00:21:20;;;;;;;8.52;4.65;;;-0.20;99.90;;;;;;5011971;28;20048;-56
2021/12/22 00:23:47;;;;;;;7.40;4.10;;;-0.10;99.90;;;;;;5010175;28;20512;-56
2021/12/22 00:26:15;;;;;;;4.80;3.13;;;-0.10;99.90;;;;;;5002412;28;20068;-54
2021/12/22 00:28:42;;;;;;;6.38;3.95;;;-0.10;99.90;;;;;;5018327;28;20072;-57
2021/12/22 00:31:12;;;;;;;4.03;2.85;;;-0.10;99.90;;;;;;5008315;28;20729;-56
2021/12/22 00:33:46;;;;;;;5.03;3.78;;;0.00;99.90;;;;;;5008096;28;20144;-56
2021/12/22 00:36:14;;;;;;;6.28;3.08;;;0.00;99.90;;;;;;5006933;28;20105;-56
2021/12/22 00:38:41;;;;;;;5.78;3.65;;;0.00;99.90;;;;;;5006188;28;20466;-57
2021/12/22 00:41:08;;;;;;;4.43;3.30;;;0.00;99.90;;;;;;5004848;28;20137;-54
2021/12/22 00:43:35;;;;;;;4.55;3.10;;;0.00;99.90;;;;;;5004069;28;20064;-56
2021/12/22 00:46:01;;;;;;;5.20;3.38;;;0.00;99.90;;;;;;5004157;28;20089;-57
2021/12/22 00:48:28;;;;;;;5.97;3.05;;;0.10;99.90;;;;;;5001848;28;21045;-56
2021/12/22 00:50:55;;;;;;;6.22;2.85;;;0.10;99.90;;;;;;5004310;28;20736;-56
2021/12/22 00:53:22;;;;;;;5.25;3.45;;;0.10;99.90;;;;;;5020009;28;20156;-56
2021/12/22 00:55:49;;;;;;;4.88;3.22;;;0.10;99.90;;;;;;5004046;28;20153;-56
2021/12/22 00:58:16;;;;;;;4.57;2.90;;;0.10;99.90;;;;;;5001812;28;20505;-53
2021/12/22 01:00:46;;;;;;;4.63;3.30;;;0.10;99.90;;;;;;5006693;28;20160;-54
2021/12/22 01:03:14;;;;;;;4.65;2.80;;;0.10;99.90;;;;;;5004985;28;20042;-57
2021/12/22 01:05:41;;;;;;;4.32;2.90;;;0.10;99.90;;;;;;5001972;28;20065;-55
2021/12/22 01:08:08;;;;;;;5.75;3.67;;;0.10;99.90;;;;;;5003035;28;20088;-56
2021/12/22 01:10:34;;;;;;;3.55;2.80;;;0.10;99.90;;;;;;5005575;28;20457;-55
2021/12/22 01:13:02;;;;;;;5.57;4.45;;;0.10;99.90;;;;;;5001797;28;20144;-55
2021/12/22 01:15:29;;;;;;;4.97;3.13;;;0.20;99.90;;;;;;5006809;28;20755;-57
2021/12/22 01:18:06;;;;;;;5.78;3.50;;;0.10;99.90;;;;;;5002748;28;20086;-57
2021/12/22 01:20:40;;;;;;;4.80;2.97;;;0.10;99.90;;;;;;5015899;28;20145;-54
2021/12/22 01:23:07;;;;;;;6.07;3.53;;;0.10;99.90;;;;;;5007256;28;20497;-56
2021/12/22 01:25:38;;;;;;;4.18;2.88;;;0.10;99.90;;;;;;5005789;28;20050;-57
2021/12/22 01:28:05;;;;;;;4.07;2.80;;;0.10;99.90;;;;;;5001276;28;20045;-57
2021/12/22 01:30:32;;;;;;;4.68;3.45;;;0.00;99.90;;;;;;5021274;28;20616;-54
2021/12/22 01:33:00;;;;;;;4.95;3.30;;;0.00;99.90;;;;;;5005275;28;20429;-56
2021/12/22 01:35:29;;;;;;;5.03;3.10;;;0.00;99.90;;;;;;5002328;28;20065;-56
2021/12/22 01:37:56;;;;;;;5.22;3.53;;;-0.10;99.90;;;;;;5001868;28;20126;-54
2021/12/22 01:40:23;;;;;;;5.32;3.20;;;-0.10;99.90;;;;;;5021800;28;20107;-56
2021/12/22 01:42:50;;;;;;;4.57;2.67;;;-0.10;99.90;;;;;;5003564;28;20081;-56
2021/12/22 01:45:29;;;;;;;4.13;2.63;;;-0.20;99.90;;;;;;5007945;28;20124;-56
2021/12/22 01:50:49;;;;;;;5.05;3.33;;;-0.30;99.90;;;;;;5008802;28;20121;-51
2021/12/22 01:53:22;;;;;;;5.95;3.13;;;-0.30;99.90;;;;;;5011252;28;20133;-56
2021/12/22 01:56:20;;;;;;;4.57;3.13;;;-0.30;99.90;;;;;;5006220;28;20583;-53
2021/12/22 01:58:49;;;;;;;4.15;2.72;;;-0.30;99.90;;;;;;5021780;28;20055;-57
2021/12/22 02:01:15;;;;;;;6.07;3.28;;;-0.30;99.90;;;;;;5019574;28;20462;-56
2021/12/22 02:03:43;;;;;;;4.68;2.88;;;-0.30;99.90;;;;;;5006434;28;20395;-52
2021/12/22 02:06:11;;;;;;;4.63;2.78;;;-0.30;99.90;;;;;;5008139;28;20129;-54
2021/12/22 02:08:39;;;;;;;3.88;2.88;;;-0.30;99.90;;;;;;5004417;28;20120;-54
2021/12/22 02:11:06;;;;;;;4.10;2.95;;;-0.30;99.90;;;;;;5007132;28;20129;-56
2021/12/22 02:13:39;;;;;;;5.70;3.25;;;-0.40;99.90;;;;;;5009346;28;20121;-54
2021/12/22 02:35:04;;;;;;;4.80;2.85;;;-0.60;99.90;;;;;;5022304;28;20111;-56
2021/12/22 02:37:41;;;;;;;4.45;2.67;;;-0.60;99.90;;;;;;5022077;28;20045;-56
2021/12/22 02:40:14;;;;;;;4.13;2.65;;;-0.60;99.90;;;;;;5025837;28;20069;-56
2021/12/22 02:42:41;;;;;;;5.10;2.55;;;-0.70;99.90;;;;;;5010587;28;20493;-56
2021/12/22 02:45:14;;;;;;;5.28;3.05;;;-0.60;99.90;;;;;;5006802;28;20116;-57
2021/12/22 02:47:40;;;;;;;4.72;2.60;;;-0.60;99.90;;;;;;5003421;28;20378;-56
2021/12/22 02:50:08;;;;;;;4.18;2.72;;;-0.60;99.90;;;;;;5007917;28;20070;-56
2021/12/22 02:52:51;;;;;;;5.97;3.72;;;-0.60;99.90;;;;;;5009536;28;20129;-57
2021/12/22 02:55:21;;;;;;;4.47;2.78;;;-0.70;99.90;;;;;;5018381;28;20073;-52
2021/12/22 02:57:49;;;;;;;4.00;2.72;;;-0.70;99.90;;;;;;5020539;28;20038;-56
2021/12/22 03:05:23;;;;;;;4.90;2.72;;;-0.70;99.90;;;;;;5003758;28;20041;-55
2021/12/22 03:07:50;;;;;;;5.63;2.75;;;-0.80;99.90;;;;;;5003086;28;20125;-55
2021/12/22 03:10:18;;;;;;;6.05;2.60;;;-0.70;99.90;;;;;;5016521;28;20101;-55
2021/12/22 03:12:47;;;;;;;3.92;2.30;;;-0.70;99.90;;;;;;5003995;28;20041;-56
2021/12/22 03:15:13;;;;;;;4.82;2.60;;;-0.60;99.90;;;;;;5002996;28;20085;-56
2021/12/22 03:17:40;;;;;;;4.82;2.88;;;-0.60;99.90;;;;;;5002742;28;20080;-56
2021/12/22 03:20:08;;;;;;;4.43;3.03;;;-0.60;99.90;;;;;;5020627;28;20647;-54
2021/12/22 03:22:36;;;;;;;4.90;2.85;;;-0.60;99.90;;;;;;5011260;28;20495;-56
2021/12/22 03:25:14;;;;;;;4.57;2.88;;;-0.60;99.90;;;;;;5003133;28;20111;-57
2021/12/22 03:27:46;;;;;;;3.42;2.15;;;-0.60;99.90;;;;;;5014435;28;20128;-54
2021/12/22 03:30:14;;;;;;;4.47;2.83;;;-0.50;99.90;;;;;;5021680;28;20505;-58
2021/12/22 03:32:40;;;;;;;3.25;2.33;;;-0.50;99.90;;;;;;5005428;28;20137;-56
2021/12/22 03:35:08;;;;;;;3.67;2.30;;;-0.50;99.90;;;;;;5003125;28;20078;-55
2021/12/22 03:37:34;;;;;;;3.97;2.30;;;-0.50;99.90;;;;;;5002825;28;20133;-55
2021/12/22 03:40:01;;;;;;;4.45;2.63;;;-0.50;99.90;;;;;;5003429;28;20125;-56
2021/12/22 03:42:28;;;;;;;4.45;2.40;;;-0.40;99.90;;;;;;5004496;28;20045;-53
2021/12/22 03:44:55;;;;;;;3.35;2.17;;;-0.40;99.90;;;;;;5018659;28;20152;-54
2021/12/22 03:47:22;;;;;;;5.25;2.58;;;-0.50;99.90;;;;;;5021129;28;20057;-56
2021/12/22 03:49:49;;;;;;;5.15;2.50;;;-0.40;99.90;;;;;;5021367;28;20194;-57
2021/12/22 03:52:15;;;;;;;3.00;2.20;;;-0.40;99.90;;;;;;5008888;28;20121;-56
2021/12/22 03:54:42;;;;;;;4.47;2.25;;;-0.40;99.90;;;;;;5021431;28;20152;-57
2021/12/22 03:57:09;;;;;;;5.05;3.10;;;-0.40;99.90;;;;;;5019490;28;20144;-56
2021/12/22 03:59:36;;;;;;;4.10;2.60;;;-0.30;99.90;;;;;;5021512;28;20125;-56
2021/12/22 04:02:03;;;;;;;5.85;2.38;;;-0.30;99.90;;;;;;5009271;28;20157;-56
2021/12/22 04:04:30;;;;;;;4.32;2.38;;;-0.30;99.90;;;;;;5021120;28;20058;-56
2021/12/22 04:06:56;;;;;;;4.97;2.53;;;-0.30;99.90;;;;;;5021185;28;20084;-56
2021/12/22 04:09:27;;;;;;;3.92;2.38;;;-0.30;99.90;;;;;;5021203;28;20128;-55
2021/12/22 04:11:54;;;;;;;6.28;2.65;;;-0.30;99.90;;;;;;5011210;28;20172;-56
2021/12/22 04:14:21;;;;;;;4.88;2.83;;;-0.30;99.90;;;;;;5003685;28;20141;-56
2021/12/22 04:16:47;;;;;;;4.35;2.25;;;-0.30;99.90;;;;;;5005145;28;20200;-56
2021/12/22 04:19:14;;;;;;;3.63;2.10;;;-0.30;99.90;;;;;;5014914;28;20077;-56
2021/12/22 04:21:41;;;;;;;5.05;3.05;;;-0.30;99.90;;;;;;5014958;28;20137;-56
2021/12/22 04:24:08;;;;;;;3.30;2.25;;;-0.30;99.90;;;;;;5010084;28;20144;-57
2021/12/22 04:26:35;;;;;;;3.15;2.05;;;-0.30;99.90;;;;;;5004921;28;20116;-56
2021/12/22 04:29:02;;;;;;;5.00;2.40;;;-0.30;99.90;;;;;;5005732;28;20132;-56
2021/12/22 04:31:28;;;;;;;3.78;2.10;;;-0.30;99.90;;;;;;5006531;28;20145;-55
2021/12/22 04:33:55;;;;;;;3.65;2.00;;;-0.40;99.90;;;;;;5009386;28;20192;-56
2021/12/22 04:36:22;;;;;;;4.25;2.25;;;-0.40;99.90;;;;;;5006162;28;20488;-56
2021/12/22 04:38:49;;;;;;;4.15;2.63;;;-0.40;99.90;;;;;;5006119;28;20086;-56
2021/12/22 04:41:16;;;;;;;2.88;1.90;;;-0.40;99.90;;;;;;5008616;28;20088;-57
2021/12/22 04:43:42;;;;;;;3.63;2.00;;;-0.40;99.90;;;;;;5006420;28;20173;-56
2021/12/22 04:46:09;;;;;;;5.00;2.30;;;-0.40;99.90;;;;;;5008936;28;20654;-53
2021/12/22 04:48:36;;;;;;;3.58;2.17;;;-0.40;99.90;;;;;;5015045;28;20128;-56
2021/12/22 04:51:12;;;;;;;4.20;2.33;;;-0.40;99.90;;;;;;5026171;28;20069;-54
2021/12/22 04:53:50;;;;;;;4.45;2.63;;;-0.40;99.90;;;;;;5015969;28;20174;-50
2021/12/22 04:56:16;;;;;;;3.47;2.03;;;-0.40;99.90;;;;;;5009124;28;20736;-54
2021/12/22 04:58:43;;;;;;;2.90;2.03;;;-0.30;99.90;;;;;;5007527;28;20397;-54
2021/12/22 05:01:10;;;;;;;3.92;2.30;;;-0.30;99.90;;;;;;5009236;28;20061;-56
2021/12/22 05:03:40;;;;;;;4.53;2.50;;;-0.30;99.90;;;;;;5010609;28;20046;-55
2021/12/22 05:06:06;;;;;;;4.00;2.33;;;-0.30;99.90;;;;;;5007322;28;20141;-56
2021/12/22 05:08:33;;;;;;;3.85;2.30;;;-0.40;99.90;;;;;;5006879;28;20092;-53
2021/12/22 05:11:00;;;;;;;5.97;2.80;;;-0.40;99.90;;;;;;5007571;28;20069;-53
2021/12/22 05:13:28;;;;;;;3.30;2.03;;;-0.40;99.90;;;;;;5006670;28;20129;-55
2021/12/22 05:15:55;;;;;;;5.47;2.58;;;-0.40;99.90;;;;;;5007212;28;20572;-54
2021/12/22 05:18:25;;;;;;;4.95;2.80;;;-0.40;99.90;;;;;;5006758;28;20848;-53
2021/12/22 05:20:52;;;;;;;4.13;2.70;;;-0.40;99.90;;;;;;5009213;28;20049;-56
2021/12/22 05:23:19;;;;;;;3.83;2.15;;;-0.40;99.90;;;;;;5012927;28;20148;-56
2021/12/22 05:25:47;;;;;;;6.90;2.55;;;-0.50;99.90;;;;;;5007054;28;20132;-56
2021/12/22 05:28:13;;;;;;;6.10;2.28;;;-0.50;99.90;;;;;;5022073;28;20145;-55
2021/12/22 05:30:40;;;;;;;5.05;2.38;;;-0.50;99.90;;;;;;5006653;28;20084;-57
2021/12/22 05:33:07;;;;;;;3.85;2.30;;;-0.50;99.90;;;;;;5009205;28;20164;-56
2021/12/22 05:35:34;;;;;;;4.07;1.80;;;-0.50;99.90;;;;;;5006386;28;20124;-55
2021/12/22 05:38:01;;;;;;;3.80;2.53;;;-0.60;99.90;;;;;;5006375;28;20096;-55
2021/12/22 05:40:28;;;;;;;3.72;2.00;;;-0.60;99.90;;;;;;5006931;28;20148;-55
2021/12/22 05:42:56;;;;;;;5.22;3.08;;;-0.60;99.90;;;;;;5009105;28;20060;-56
2021/12/22 05:45:23;;;;;;;4.88;2.65;;;-0.60;99.90;;;;;;5018466;28;20680;-55
2021/12/22 05:47:52;;;;;;;4.13;2.63;;;-0.60;99.90;;;;;;5024357;28;20137;-57
2021/12/22 05:50:20;;;;;;;5.05;2.08;;;-0.60;99.90;;;;;;5019599;28;20128;-56
2021/12/22 05:52:47;;;;;;;4.18;2.15;;;-0.60;99.90;;;;;;5023735;28;20049;-53
2021/12/22 05:55:14;;;;;;;4.00;2.35;;;-0.60;99.90;;;;;;5020453;28;20080;-55
2021/12/22 05:57:41;;;;;;;4.32;2.35;;;-0.60;99.90;;;;;;5016488;28;20072;-55
2021/12/22 06:00:08;;;;;;;4.88;2.63;;;-0.70;99.90;;;;;;5019698;28;20117;-55
2021/12/22 06:02:35;;;;;;;3.28;2.58;;;-0.60;99.90;;;;;;5016953;28;20057;-56
2021/12/22 06:05:03;;;;;;;6.40;2.88;;;-0.60;99.90;;;;;;5017175;28;20050;-54
2021/12/22 06:07:29;;;;;;;3.70;2.33;;;-0.60;99.90;;;;;;5016674;28;20136;-55
2021/12/22 06:09:56;;;;;;;4.18;2.70;;;-0.60;99.90;;;;;;5019432;28;20828;-56
2021/12/22 06:12:23;;;;;;;7.82;2.60;;;-0.60;99.90;;;;;;5014133;28;20076;-54
2021/12/22 06:14:49;;;;;;;4.80;2.47;;;-0.60;99.90;;;;;;5024884;28;20038;-56
2021/12/22 06:17:16;;;;;;;5.18;2.80;;;-0.60;99.90;;;;;;5011617;28;20160;-55
2021/12/22 06:19:43;;;;;;;4.25;2.67;;;-0.60;99.90;;;;;;5022147;28;20076;-56
2021/12/22 06:22:10;;;;;;;5.30;2.65;;;-0.60;99.90;;;;;;5029924;28;20144;-56
2021/12/22 06:24:36;;;;;;;5.20;2.60;;;-0.60;99.90;;;;;;5014398;28;20141;-54
2021/12/22 06:27:03;;;;;;;3.85;2.38;;;-0.60;99.90;;;;;;5012657;28;20490;-54
2021/12/22 06:29:30;;;;;;;4.65;2.83;;;-0.60;99.90;;;;;;5024106;28;21036;-55
2021/12/22 06:31:57;;;;;;;4.82;2.50;;;-0.60;99.90;;;;;;5011290;28;20922;-57
2021/12/22 06:34:24;;;;;;;4.70;2.58;;;-0.60;99.90;;;;;;5019036;28;20152;-55
2021/12/22 06:36:50;;;;;;;4.60;2.60;;;-0.60;99.90;;;;;;5018310;28;20399;-55
2021/12/22 06:39:18;;;;;;;3.78;2.38;;;-0.60;99.90;;;;;;5021927;28;20188;-54
2021/12/22 06:41:46;;;;;;;4.47;2.10;;;-0.60;99.90;;;;;;5014182;28;20134;-56
2021/12/22 06:44:14;;;;;;;3.65;2.30;;;-0.60;99.90;;;;;;5013243;28;20050;-55
2021/12/22 06:46:42;;;;;;;3.38;2.00;;;-0.60;99.90;;;;;;5021947;28;20088;-56
2021/12/22 06:49:09;;;;;;;3.75;2.47;;;-0.50;99.90;;;;;;5015525;28;20413;-55
2021/12/22 06:51:37;;;;;;;4.60;2.72;;;-0.50;99.90;;;;;;5013064;28;20053;-55
2021/12/22 06:54:04;;;;;;;3.85;2.80;;;-0.50;99.90;;;;;;5018946;28;20127;-56
2021/12/22 06:56:31;;;;;;;7.07;3.45;;;-0.40;99.90;;;;;;5014109;28;20057;-58
2021/12/22 06:59:01;;;;;;;4.28;2.50;;;-0.40;99.90;;;;;;5012863;28;20438;-59
2021/12/22 07:01:31;;;;;;;4.05;2.58;;;-0.40;99.90;;;;;;5006547;28;20042;-61
2021/12/22 07:03:58;;;;;;;3.70;2.38;;;-0.40;99.90;;;;;;5008110;28;20077;-57
2021/12/22 07:06:25;;;;;;;2.80;1.77;;;-0.40;99.90;;;;;;5015028;28;20258;-61
2021/12/22 07:08:52;;;;;;;2.88;1.98;;;-0.30;99.90;;;;;;5024012;28;20552;-55
2021/12/22 07:11:19;;;;;;;3.10;2.20;;;-0.30;99.90;;;;;;5013221;28;20444;-56
2021/12/22 07:13:46;;;;;;;3.00;2.33;;;-0.30;99.90;;;;;;5022485;28;20487;-55
2021/12/22 07:16:13;;;;;;;2.83;1.80;;;-0.30;99.90;;;;;;5021295;28;20107;-55
2021/12/22 07:18:40;;;;;;;3.10;2.20;;;-0.20;99.90;;;;;;5017579;28;20057;-56
2021/12/22 07:21:07;;;;;;;2.97;1.90;;;-0.30;99.90;;;;;;5023978;28;20168;-56
2021/12/22 07:23:34;;;;;;;5.75;2.50;;;-0.20;99.90;;;;;;5021742;28;20164;-54
2021/12/22 07:26:00;;;;;;;3.22;1.98;;;-0.20;99.90;;;;;;5003162;28;20132;-57
2021/12/22 07:28:27;;;;;;;4.78;2.85;;;-0.30;99.90;;;;;;5014740;28;20049;-58
2021/12/22 07:30:54;;;;;;;3.03;1.95;;;-0.30;99.90;;;;;;5017218;28;20453;-56
2021/12/22 07:33:21;;;;;;;5.30;2.40;;;-0.30;99.90;;;;;;5021870;28;20049;-57
2021/12/22 07:36:01;;;;;;;3.90;2.20;;;-0.30;99.90;;;;;;5019455;28;20642;-57
2021/12/22 07:38:40;;;;;;;3.47;2.00;;;-0.30;99.90;;;;;;5019407;28;20052;-57
2021/12/22 07:41:08;;;;;;;4.47;2.05;;;-0.40;99.90;;;;;;5017416;28;20092;-54
2021/12/22 07:43:35;;;;;;;3.67;2.13;;;-0.40;99.90;;;;;;5018637;28;20121;-56
2021/12/22 07:46:02;;;;;;;4.18;2.45;;;-0.40;99.90;;;;;;5017507;28;20413;-55
2021/12/22 07:48:29;;;;;;;3.22;2.33;;;-0.40;99.90;;;;;;5010197;28;20149;-53
2021/12/22 07:50:56;;;;;;;5.88;2.53;;;-0.40;99.90;;;;;;5020132;28;20054;-56
2021/12/22 07:53:23;;;;;;;3.53;2.00;;;-0.50;99.90;;;;;;5023580;28;20622;-55
2021/12/22 07:55:53;;;;;;;3.97;2.20;;;-0.50;99.90;;;;;;5017946;28;20693;-53
2021/12/22 07:58:21;;;;;;;4.13;1.85;;;-0.40;99.90;;;;;;5020551;28;20097;-55
2021/12/22 08:00:48;;;;;;;3.58;2.45;;;-0.50;99.90;;;;;;5022137;28;20110;-56
2021/12/22 08:03:15;;;;;;;3.08;2.00;;;-0.50;99.90;;;;;;5023838;28;20057;-56
2021/12/22 08:06:02;;;;;;;4.03;2.00;;;-0.50;99.90;;;;;;5019977;28;20072;-55
2021/12/22 08:08:29;;;;;;;3.28;2.03;;;-0.50;99.90;;;;;;5017777;28;20087;-55
2021/12/22 08:10:56;;;;;;;2.72;1.98;;;-0.40;99.90;;;;;;5016122;28;20129;-56
2021/12/22 08:13:23;;;;;;;3.42;2.20;;;-0.40;99.90;;;;;;5011108;28;20138;-56
2021/12/22 08:15:49;;;;;;;4.40;2.65;;;-0.40;99.90;;;;;;5020233;28;20132;-54
2021/12/22 08:18:16;;;;;;;5.28;3.20;;;-0.40;99.90;;;;;;5015619;28;20071;-58
2021/12/22 08:20:43;;;;;;;3.72;2.40;;;-0.30;99.90;;;;;;5016531;28;20105;-55
2021/12/22 08:23:10;;;;;;;4.32;2.42;;;-0.30;99.90;;;;;;5012019;28;20085;-56
2021/12/22 08:25:38;;;;;;;4.15;2.50;;;-0.30;99.90;;;;;;5017787;28;20397;-57
2021/12/22 08:28:05;;;;;;;3.80;2.53;;;-0.20;99.90;;;;;;5008041;28;20084;-56
2021/12/22 08:30:32;;;;;;;3.33;2.38;;;-0.20;99.90;;;;;;5017445;28;20045;-55
2021/12/22 08:33:04;;;;;;;3.88;2.42;;;-0.10;99.90;;;;;;5021650;28;20107;-55
2021/12/22 08:38:50;;;;;;;4.65;2.83;;;0.00;99.90;;;;;;5026116;28;20056;-57
2021/12/22 08:41:06;;;;;;;4.43;3.38;;;0.20;99.90;;;;;;5024817;28;20137;-53
2021/12/22 08:43:33;;;;;;;3.92;2.90;;;0.40;99.90;;;;;;5023638;28;20404;-56
2021/12/22 08:45:59;;;;;;;3.70;2.50;;;0.50;99.90;;;;;;5013332;28;20088;-57
2021/12/22 08:48:26;;;;;;;4.55;3.00;;;0.60;99.90;;;;;;5024691;28;20071;-56
2021/12/22 08:50:53;;;;;;;4.10;3.22;;;0.70;99.90;;;;;;5012121;28;20077;-55
2021/12/22 08:53:20;;;;;;;6.18;3.47;;;0.90;99.90;;;;;;5025764;28;20132;-56
2021/12/22 08:55:46;;;;;;;5.95;3.38;;;1.00;99.90;;;;;;5023911;28;20136;-57
2021/12/22 08:58:13;;;;;;;5.40;3.28;;;1.10;99.90;;;;;;5017333;28;20084;-55
2021/12/22 09:00:40;;;;;;;4.20;3.35;;;1.20;99.90;;;;;;5014009;28;20072;-56
2021/12/22 09:03:07;;;;;;;4.75;2.60;;;1.20;99.90;;;;;;5020529;28;20107;-56
2021/12/22 09:05:34;;;;;;;4.38;2.65;;;1.30;99.90;;;;;;5016180;28;20132;-56
2021/12/22 09:08:01;;;;;;;4.05;2.63;;;1.40;99.90;;;;;;5017915;28;20453;-56
2021/12/22 09:10:27;;;;;;;5.07;2.85;;;1.40;99.90;;;;;;5016956;28;20074;-55
2021/12/22 09:12:54;;;;;;;5.47;2.92;;;1.50;99.90;;;;;;5015682;28;20089;-56
2021/12/22 09:15:22;;;;;;;4.88;3.17;;;1.50;99.90;;;;;;5014074;28;20093;-56
2021/12/22 09:17:48;;;;;;;5.93;3.13;;;1.60;99.90;;;;;;5026564;28;20080;-55
2021/12/22 09:20:15;;;;;;;8.65;4.00;;;1.70;99.90;;;;;;5019674;28;20583;-54
2021/12/22 09:22:42;;;;;;;4.32;2.97;;;1.90;99.90;;;;;;5020495;28;20085;-55
2021/12/22 09:25:09;;;;;;;5.95;3.30;;;2.00;99.90;;;;;;5018525;28;20132;-54
2021/12/22 09:27:36;;;;;;;4.88;3.10;;;2.10;99.90;;;;;;5014007;28;20074;-54
2021/12/22 09:30:04;;;;;;;6.22;3.80;;;2.20;99.90;;;;;;5021502;28;20575;-54
2021/12/22 09:32:30;;;;;;;4.88;3.40;;;2.30;99.90;;;;;;5020085;28;20085;-56
2021/12/22 09:34:57;;;;;;;6.30;3.55;;;2.40;99.90;;;;;;5020362;28;20066;-53
2021/12/22 09:37:24;;;;;;;4.28;2.88;;;2.50;99.90;;;;;;5019211;28;20896;-51
2021/12/22 09:39:51;;;;;;;4.88;3.35;;;2.60;99.90;;;;;;5020344;28;20103;-56
2021/12/22 09:42:18;;;;;;;4.35;2.88;;;2.70;99.90;;;;;;5019585;28;20113;-54
2021/12/22 09:44:46;;;;;;;4.90;3.33;;;2.80;99.90;;;;;;5018975;28;20049;-54
2021/12/22 09:47:15;;;;;;;4.70;2.70;;;2.90;99.90;;;;;;5016688;28;20074;-50
2021/12/22 09:52:17;;;;;;;4.85;3.17;;;3.00;99.90;;;;;;5016366;28;20046;-54
2021/12/22 09:54:45;;;;;;;5.20;3.42;;;3.10;99.90;;;;;;5016491;28;20045;-53
2021/12/22 09:57:15;;;;;;;5.20;3.70;;;3.20;99.90;;;;;;5013624;28;20404;-53
2021/12/22 09:59:41;;;;;;;3.90;2.80;;;3.20;99.90;;;;;;5019324;28;20470;-52
2021/12/22 10:02:08;;;;;;;6.63;3.50;;;3.30;99.90;;;;;;5020007;28;20750;-55
2021/12/22 10:04:35;;;;;;;5.13;3.55;;;3.40;99.90;;;;;;5017213;28;20053;-55
2021/12/22 10:07:04;;;;;;;5.55;3.65;;;3.50;99.90;;;;;;5011196;28;20049;-54
2021/12/22 10:09:31;;;;;;;5.10;3.70;;;3.60;99.90;;;;;;5011806;28;20143;-54
2021/12/22 10:12:04;;;;;;;4.95;3.95;;;3.60;99.90;;;;;;5013700;28;20891;-54
2021/12/22 10:14:57;;;;;;;5.93;4.03;;;3.70;99.90;;;;;;5014665;28;20057;-52
2021/12/22 10:17:31;;;;;;;4.53;3.60;;;3.70;99.90;;;;;;5013685;28;20063;-51
2021/12/22 10:19:59;;;;;;;5.88;3.42;;;3.80;99.90;;;;;;5013725;28;20126;-51
2021/12/22 10:22:30;;;;;;;4.13;3.08;;;3.90;99.90;;;;;;5013667;28;20056;-53
2021/12/22 10:25:10;;;;;;;6.65;3.75;;;3.90;99.90;;;;;;5019329;28;20085;-51
2021/12/22 10:27:38;;;;;;;6.35;4.15;;;4.00;99.90;;;;;;5015817;28;20175;-53
2021/12/22 10:30:21;;;;;;;7.75;4.60;;;4.10;99.90;;;;;;5017014;28;20095;-55
2021/12/22 10:32:48;;;;;;;6.25;4.30;;;4.10;99.90;;;;;;5013857;28;20150;-53
2021/12/22 10:35:15;;;;;;;5.70;3.85;;;4.10;99.90;;;;;;5016752;28;20046;-52
2021/12/22 10:37:42;;;;;;;6.30;3.85;;;4.20;99.90;;;;;;5017520;28;20544;-54
2021/12/22 10:40:25;;;;;;;6.88;3.70;;;4.30;99.90;;;;;;5017006;28;20133;-56
2021/12/22 10:42:52;;;;;;;5.70;3.38;;;4.30;99.90;;;;;;5008330;28;20049;-57
2021/12/22 10:45:19;;;;;;;8.07;4.63;;;4.30;99.90;;;;;;5012802;28;20553;-58
2021/12/22 10:50:33;;;;;;;5.50;3.90;;;4.40;99.90;;;;;;5014222;28;20045;-58
2021/12/22 10:53:00;;;;;;;6.88;3.88;;;4.40;99.90;;;;;;5013140;28;20129;-56
2021/12/22 10:55:38;;;;;;;5.60;3.78;;;4.40;99.90;;;;;;5012544;28;20129;-57
2021/12/22 10:58:15;;;;;;;5.50;4.10;;;4.40;99.90;;;;;;5007775;28;20115;-57
2021/12/22 11:00:42;;;;;;;7.45;4.05;;;4.50;99.90;;;;;;5008064;28;20084;-54
2021/12/22 11:03:15;;;;;;;6.72;3.95;;;4.50;99.90;;;;;;5010279;28;20053;-57
2021/12/22 11:05:44;;;;;;;;;;;4.50;99.90;;;;;;5013090;28;20053;-58
2021/12/22 11:08:25;;;;;;;5.90;3.88;;;4.60;99.90;;;;;;5009036;28;20012;-58
2021/12/22 11:10:54;;;;;;;5.38;3.95;;;4.60;99.90;;;;;;5008197;28;20042;-57
2021/12/22 11:13:23;;;;;;;5.25;3.97;;;4.60;99.90;;;;;;5008533;28;20073;-57
2021/12/22 11:15:50;;;;;;;5.72;3.75;;;4.70;99.90;;;;;;5009546;28;20461;-57
2021/12/22 11:18:34;;;;;;;5.20;3.35;;;4.80;99.90;;;;;;5007986;28;20519;-58
2021/12/22 11:21:17;;;;;;;6.18;4.03;;;4.80;99.90;;;;;;5006756;28;20477;-56
2021/12/22 11:23:44;;;;;;;6.05;3.78;;;4.80;99.90;;;;;;5013286;28;20050;-58
2021/12/22 11:26:13;;;;;;;3.95;3.22;;;4.80;99.90;;;;;;5007785;28;20497;-56
2021/12/22 11:28:40;;;;;;;5.18;3.88;;;4.90;99.90;;;;;;5009792;28;20372;-58
2021/12/22 11:31:07;;;;;;;6.57;4.13;;;5.00;99.90;;;;;;5007943;28;20164;-57
2021/12/22 11:33:34;;;;;;;5.15;3.80;;;5.00;99.90;;;;;;5009783;28;20064;-58
2021/12/22 11:36:01;;;;;;;4.95;3.92;;;5.00;99.90;;;;;;5010517;28;20100;-57
2021/12/22 11:38:30;;;;;;;7.47;5.30;;;5.10;99.90;;;;;;5013151;28;20485;-55
2021/12/22 11:41:09;;;;;;;7.47;4.55;;;5.20;99.90;;;;;;5007019;28;20050;-58
2021/12/22 11:43:37;;;;;;;6.53;4.43;;;5.20;99.90;;;;;;5011032;28;20119;-58
2021/12/22 11:46:04;;;;;;;6.10;3.78;;;5.30;99.90;;;;;;5012114;28;20089;-54
2021/12/22 11:48:33;;;;;;;5.95;3.90;;;5.30;99.90;;;;;;5013166;28;20067;-55
2021/12/22 11:51:00;;;;;;;5.82;3.75;;;5.30;99.90;;;;;;5010140;28;20141;-57
2021/12/22 11:53:57;;;;;;;4.60;3.50;;;5.40;99.90;;;;;;5004976;28;20053;-57
2021/12/22 11:56:43;;;;;;;5.00;3.35;;;5.50;99.90;;;;;;5013078;28;20068;-56
2021/12/22 11:59:37;;;;;;;5.43;3.63;;;5.60;99.90;;;;;;5012901;28;20184;-55
2021/12/22 12:02:31;;;;;;;4.53;3.28;;;5.70;99.90;;;;;;5030263;28;20053;-57
2021/12/22 12:05:20;;;;;;;5.75;3.28;;;5.80;99.90;;;;;;5016715;28;20057;-55
2021/12/22 12:07:55;;;;;;;4.43;3.42;;;5.80;99.90;;;;;;5014093;28;20142;-56
2021/12/22 12:10:40;;;;;;;5.07;3.28;;;5.80;99.90;;;;;;5013553;28;20050;-52
2021/12/22 12:13:23;;;;;;;4.75;3.35;;;5.90;99.90;;;;;;5012165;28;20045;-57
2021/12/22 12:22:05;;;;;;;3.70;2.67;;;5.90;99.90;;;;;;5008514;28;20913;-57
2021/12/22 12:24:47;;;;;;;6.15;3.00;;;5.90;99.90;;;;;;5015733;28;20049;-54
2021/12/22 12:27:35;;;;;;;3.90;2.88;;;5.90;99.90;;;;;;5007335;28;20164;-58
2021/12/22 12:30:15;;;;;;;3.97;2.85;;;5.90;99.90;;;;;;5005795;28;20149;-58
2021/12/22 12:32:46;;;;;;;3.10;2.80;;;5.80;99.90;;;;;;5007843;28;20169;-58
2021/12/22 12:35:28;;;;;;;6.38;3.30;;;5.90;99.90;;;;;;5010983;28;20045;-57
2021/12/22 12:38:16;;;;;;;5.68;2.85;;;5.90;99.90;;;;;;5006606;28;20112;-56
2021/12/22 12:40:55;;;;;;;3.60;2.95;;;5.90;99.90;;;;;;5012351;28;20136;-56
2021/12/22 12:43:52;;;;;;;3.83;2.60;;;5.90;99.90;;;;;;5012266;28;20127;-57
2021/12/22 12:46:35;;;;;;;4.20;2.50;;;6.00;99.90;;;;;;5014473;28;20161;-55
2021/12/22 12:49:07;;;;;;;4.35;2.70;;;6.00;99.90;;;;;;5010690;28;20140;-58
2021/12/22 12:51:46;;;;;;;4.47;2.72;;;6.00;99.90;;;;;;5010140;28;20104;-58
2021/12/22 12:54:15;;;;;;;3.78;2.63;;;6.00;99.90;;;;;;5012924;28;20057;-55
2021/12/22 12:56:49;;;;;;;5.15;3.58;;;6.00;99.90;;;;;;5008493;28;20472;-58
2021/12/22 12:59:15;;;;;;;;;;;6.00;99.90;;;;;;5007427;28;20058;-51
2021/12/22 13:01:51;;;;;;;3.75;2.65;;;6.00;99.90;;;;;;5009921;28;20075;-57
2021/12/22 13:04:35;;;;;;;5.65;3.25;;;5.90;99.90;;;;;;5012890;28;20799;-58
2021/12/22 13:07:19;;;;;;;5.15;3.42;;;5.90;99.90;;;;;;5014706;28;20497;-58
2021/12/22 13:09:50;;;;;;;4.32;3.03;;;5.90;99.90;;;;;;5013622;28;20077;-58
2021/12/22 13:17:51;;;;;;;4.57;3.33;;;5.80;99.90;;;;;;5015932;28;20481;-58
2021/12/22 13:20:20;;;;;;;4.65;3.35;;;5.70;99.90;;;;;;5013615;28;20667;-58
2021/12/22 13:22:49;;;;;;;3.53;2.72;;;5.70;99.90;;;;;;5013523;28;20045;-57
2021/12/22 13:25:25;;;;;;;4.40;3.30;;;5.70;99.90;;;;;;5010490;28;20093;-57
2021/12/22 13:27:57;;;;;;;4.45;3.45;;;5.70;99.90;;;;;;5006775;28;20156;-58
2021/12/22 13:30:29;;;;;;;4.97;3.72;;;5.70;99.90;;;;;;5013017;28;20059;-57
2021/12/22 13:33:09;;;;;;;4.30;3.50;;;5.70;99.90;;;;;;5007365;28;20081;-57
2021/12/22 13:35:45;;;;;;;4.35;3.10;;;5.60;99.90;;;;;;5017048;28;20085;-57
2021/12/22 13:38:41;;;;;;;4.18;2.97;;;5.70;99.90;;;;;;5008113;28;20549;-57
2021/12/22 13:41:20;;;;;;;6.07;3.20;;;5.60;99.90;;;;;;5011585;28;20090;-58
2021/12/22 13:43:53;;;;;;;4.30;3.05;;;5.70;99.90;;;;;;5010985;28;20076;-56
2021/12/22 13:46:36;;;;;;;4.45;3.47;;;5.70;99.90;;;;;;5014878;28;20512;-55
2021/12/22 13:49:05;;;;;;;4.97;3.37;;;5.70;99.90;;;;;;5014888;28;20089;-57
2021/12/22 13:51:40;;;;;;;5.70;3.42;;;5.70;99.90;;;;;;5014832;28;20428;-57
2021/12/22 13:54:12;;;;;;;4.90;3.47;;;5.70;99.90;;;;;;5014702;28;20128;-56